Time;durP1;ratioP1;P1;durP2;ratioP2;P2;SDS_P1;SDS_P2;PMS_P1;PMS_P2;Temp;Humidity;BMP_temperature;BMP_pressure;BME280_temperature;BME280_humidity;BME280_pressure;Samples;Min_cycle;Max_cycle;Signal;HPM_P1;HPM_P2
2022/06/16 00:00:38;;;;;;;4.75;3.05;;;;;;;;;;5080467;28;20075;-71
2022/06/16 00:03:06;;;;;;;4.95;3.20;;;;;;;;;;5094023;28;20488;-71
2022/06/16 00:05:34;;;;;;;3.47;2.47;;;;;;;;;;5094376;28;20048;-71
2022/06/16 00:08:02;;;;;;;3.72;2.30;;;;;;;;;;5092387;28;20074;-71
2022/06/16 00:10:28;;;;;;;;;;;;;;;;;;5094856;28;20040;-71
2022/06/16 00:12:54;;;;;;;3.47;1.90;;;;;;;;;;5094265;28;19974;-71
2022/06/16 00:15:22;;;;;;;3.13;1.92;;;;;;;;;;5094225;28;20148;-71
2022/06/16 00:17:49;;;;;;;2.95;2.10;;;;;;;;;;5094146;28;20079;-71
2022/06/16 00:20:16;;;;;;;3.37;2.00;;;;;;;;;;5094526;28;20052;-71
2022/06/16 00:22:43;;;;;;;2.47;2.10;;;;;;;;;;5094069;28;20339;-71
2022/06/16 00:25:09;;;;;;;4.60;2.00;;;;;;;;;;5093493;28;20579;-71
2022/06/16 00:27:36;;;;;;;2.97;2.10;;;;;;;;;;5094359;28;20093;-71
2022/06/16 00:30:03;;;;;;;4.25;2.10;;;;;;;;;;5094337;28;20486;-71
2022/06/16 00:32:30;;;;;;;5.00;1.90;;;;;;;;;;5093877;28;20143;-71
2022/06/16 00:34:56;;;;;;;3.00;2.00;;;;;;;;;;5093932;28;20126;-71
2022/06/16 00:37:23;;;;;;;2.67;2.22;;;;;;;;;;5093719;28;20088;-71
2022/06/16 00:39:49;;;;;;;4.72;2.08;;;;;;;;;;5093740;28;20083;-71
2022/06/16 00:42:20;;;;;;;2.60;2.10;;;;;;;;;;5093946;28;20139;-71
2022/06/16 00:44:51;;;;;;;2.80;2.33;;;;;;;;;;5093766;28;20044;-71
2022/06/16 00:47:22;;;;;;;3.65;2.38;;;;;;;;;;5094022;28;20048;-71
2022/06/16 00:49:50;;;;;;;3.03;2.30;;;;;;;;;;5093675;28;20040;-70
2022/06/16 00:52:21;;;;;;;2.92;2.20;;;;;;;;;;5093602;28;20468;-71
2022/06/16 00:54:54;;;;;;;2.75;1.92;;;;;;;;;;5093809;28;20086;-71
2022/06/16 00:57:27;;;;;;;4.22;2.40;;;;;;;;;;5093703;28;20067;-71
2022/06/16 00:59:55;;;;;;;2.47;2.28;;;;;;;;;;5093460;28;20051;-71
2022/06/16 01:02:22;;;;;;;3.75;2.65;;;;;;;;;;5093551;28;20151;-71
2022/06/16 01:04:52;;;;;;;2.75;2.55;;;;;;;;;;5093651;28;20048;-70
2022/06/16 01:07:24;;;;;;;3.33;2.53;;;;;;;;;;5093567;28;20044;-70
2022/06/16 01:09:51;;;;;;;3.92;2.70;;;;;;;;;;5093248;28;20539;-70
2022/06/16 01:15:16;;;;;;;3.25;2.60;;;;;;;;;;5093397;28;20477;-70
2022/06/16 01:18:01;;;;;;;4.15;2.67;;;;;;;;;;5093059;28;20523;-70
2022/06/16 01:20:36;;;;;;;3.47;2.53;;;;;;;;;;5092974;28;20083;-70
2022/06/16 01:23:15;;;;;;;4.00;2.40;;;;;;;;;;5092934;28;20079;-70
2022/06/16 01:26:00;;;;;;;2.75;2.30;;;;;;;;;;5093152;28;20078;-70
2022/06/16 01:28:29;;;;;;;3.25;2.17;;;;;;;;;;5093233;28;20107;-70
2022/06/16 01:31:07;;;;;;;2.83;2.63;;;;;;;;;;5091460;28;20079;-71
2022/06/16 01:33:40;;;;;;;3.67;2.63;;;;;;;;;;5091528;28;20052;-71
2022/06/16 01:36:39;;;;;;;4.25;2.20;;;;;;;;;;5091742;28;20077;-71
2022/06/16 01:39:18;;;;;;;3.55;2.50;;;;;;;;;;5048306;28;20075;-70
2022/06/16 01:41:56;;;;;;;4.13;2.60;;;;;;;;;;5092537;28;20086;-70
2022/06/16 01:44:29;;;;;;;2.67;2.08;;;;;;;;;;5092479;28;20084;-70
2022/06/16 01:46:57;;;;;;;3.05;2.08;;;;;;;;;;5091674;28;20403;-70
2022/06/16 01:49:44;;;;;;;2.90;2.60;;;;;;;;;;5092455;28;20044;-71
2022/06/16 01:52:12;;;;;;;3.72;2.45;;;;;;;;;;5092238;28;20048;-70
2022/06/16 01:54:41;;;;;;;1.98;1.88;;;;;;;;;;5091344;28;20110;-70
2022/06/16 01:57:19;;;;;;;2.92;2.50;;;;;;;;;;5092467;28;20512;-70
2022/06/16 01:59:48;;;;;;;3.70;2.20;;;;;;;;;;5092356;28;20072;-71
2022/06/16 02:02:17;;;;;;;3.35;2.00;;;;;;;;;;5092221;28;20087;-70
2022/06/16 02:04:45;;;;;;;2.95;2.58;;;;;;;;;;5092179;28;20047;-70
2022/06/16 02:07:14;;;;;;;2.38;2.20;;;;;;;;;;5092112;28;20580;-70
2022/06/16 02:09:42;;;;;;;2.10;1.88;;;;;;;;;;5091170;28;20064;-70
2022/06/16 02:12:12;;;;;;;4.35;2.40;;;;;;;;;;5092352;28;20120;-71
2022/06/16 02:14:42;;;;;;;2.92;2.40;;;;;;;;;;5092135;28;20561;-71
2022/06/16 02:17:09;;;;;;;3.50;2.25;;;;;;;;;;5092261;28;20130;-70
2022/06/16 02:19:36;;;;;;;3.10;2.15;;;;;;;;;;5092033;28;20534;-70
2022/06/16 02:22:03;;;;;;;3.40;2.20;;;;;;;;;;5091882;28;20507;-70
2022/06/16 02:24:30;;;;;;;3.40;2.58;;;;;;;;;;5091773;28;20126;-70
2022/06/16 02:26:58;;;;;;;2.60;2.40;;;;;;;;;;5091959;28;20543;-70
2022/06/16 02:29:33;;;;;;;4.28;2.38;;;;;;;;;;5091915;28;20524;-70
2022/06/16 02:32:32;;;;;;;2.53;2.42;;;;;;;;;;5090554;28;20044;-70
2022/06/16 02:35:13;;;;;;;3.75;2.70;;;;;;;;;;5050705;28;20078;-71
2022/06/16 02:37:40;;;;;;;2.25;2.05;;;;;;;;;;5090749;28;20056;-70
2022/06/16 02:40:06;;;;;;;3.67;2.30;;;;;;;;;;5091856;28;20048;-70
2022/06/16 02:42:48;;;;;;;3.35;2.40;;;;;;;;;;5091881;28;20106;-70
2022/06/16 02:45:33;;;;;;;2.40;2.22;;;;;;;;;;5091627;28;20097;-70
2022/06/16 02:48:00;;;;;;;3.17;2.55;;;;;;;;;;5091483;28;20200;-70
2022/06/16 02:50:32;;;;;;;2.63;2.08;;;;;;;;;;5091926;28;20094;-71
2022/06/16 02:53:06;;;;;;;5.82;2.25;;;;;;;;;;5091811;28;20113;-71
2022/06/16 02:55:42;;;;;;;2.58;2.38;;;;;;;;;;5091656;28;20083;-70
2022/06/16 02:58:10;;;;;;;2.60;2.40;;;;;;;;;;5091553;28;20083;-70
2022/06/16 03:00:42;;;;;;;2.20;2.00;;;;;;;;;;5091536;28;20087;-70
2022/06/16 03:03:22;;;;;;;4.88;2.28;;;;;;;;;;5091710;28;20482;-70
2022/06/16 03:05:50;;;;;;;2.72;2.40;;;;;;;;;;5091419;28;20080;-70
2022/06/16 03:08:16;;;;;;;;;;;;;;;;;;5092236;28;20080;-70
2022/06/16 03:10:52;;;;;;;2.88;2.67;;;;;;;;;;5091626;28;19920;-70
2022/06/16 03:13:19;;;;;;;3.50;2.53;;;;;;;;;;5091782;28;20048;-70
2022/06/16 03:15:45;;;;;;;2.78;2.50;;;;;;;;;;5091312;28;20495;-70
2022/06/16 03:18:12;;;;;;;3.35;2.28;;;;;;;;;;5091678;28;20078;-70
2022/06/16 03:20:38;;;;;;;2.13;2.00;;;;;;;;;;5091226;28;20083;-70
2022/06/16 03:23:05;;;;;;;3.45;2.40;;;;;;;;;;5091608;28;20087;-70
2022/06/16 03:25:31;;;;;;;2.70;2.50;;;;;;;;;;5091244;28;20094;-70
2022/06/16 03:27:58;;;;;;;2.40;2.20;;;;;;;;;;5091600;28;20083;-70
2022/06/16 03:30:25;;;;;;;3.83;2.63;;;;;;;;;;5090297;28;20044;-70
2022/06/16 03:32:51;;;;;;;2.53;2.33;;;;;;;;;;5091182;28;20451;-70
2022/06/16 03:35:18;;;;;;;3.28;2.33;;;;;;;;;;5090999;28;20051;-70
2022/06/16 03:37:44;;;;;;;3.17;2.28;;;;;;;;;;5091164;28;20086;-70
2022/06/16 03:40:13;;;;;;;3.05;2.17;;;;;;;;;;5091770;28;20048;-70
2022/06/16 03:42:40;;;;;;;2.92;2.63;;;;;;;;;;5091344;28;20076;-70
2022/06/16 03:45:07;;;;;;;3.28;2.97;;;;;;;;;;5090999;28;20127;-70
2022/06/16 03:47:33;;;;;;;4.72;2.60;;;;;;;;;;5091042;28;20549;-70
2022/06/16 03:50:00;;;;;;;4.28;2.22;;;;;;;;;;5091067;28;20082;-70
2022/06/16 03:52:26;;;;;;;3.58;2.65;;;;;;;;;;5091146;28;20044;-70
2022/06/16 03:54:53;;;;;;;3.55;2.60;;;;;;;;;;5090917;28;20087;-70
2022/06/16 03:57:19;;;;;;;4.68;2.85;;;;;;;;;;5091012;28;20131;-70
2022/06/16 03:59:45;;;;;;;2.88;2.15;;;;;;;;;;5092225;28;20082;-70
2022/06/16 04:02:12;;;;;;;4.25;2.95;;;;;;;;;;5094791;28;20048;-71
2022/06/16 04:04:39;;;;;;;4.15;3.38;;;;;;;;;;5093201;28;20052;-70
2022/06/16 04:07:06;;;;;;;4.45;3.40;;;;;;;;;;5094717;28;20040;-70
2022/06/16 04:09:32;;;;;;;4.53;2.70;;;;;;;;;;5094736;28;20101;-70
2022/06/16 04:11:59;;;;;;;4.53;2.75;;;;;;;;;;5094350;28;20048;-70
2022/06/16 04:14:25;;;;;;;3.40;2.75;;;;;;;;;;5094629;28;20083;-70
2022/06/16 04:16:53;;;;;;;3.95;2.80;;;;;;;;;;5094567;28;20113;-71
2022/06/16 04:19:21;;;;;;;3.13;2.55;;;;;;;;;;5094477;28;20079;-71
2022/06/16 04:21:48;;;;;;;8.77;2.88;;;;;;;;;;5094521;28;20048;-70
2022/06/16 04:24:15;;;;;;;5.03;2.60;;;;;;;;;;5094174;28;20036;-70
2022/06/16 04:26:42;;;;;;;4.28;3.08;;;;;;;;;;5094021;28;20084;-70
2022/06/16 04:29:09;;;;;;;5.70;2.67;;;;;;;;;;5094288;28;20036;-70
2022/06/16 04:31:36;;;;;;;2.47;2.15;;;;;;;;;;5094320;28;20368;-71
2022/06/16 04:34:03;;;;;;;3.27;2.47;;;;;;;;;;5094286;28;20462;-71
2022/06/16 04:36:30;;;;;;;4.55;2.72;;;;;;;;;;5093740;28;20095;-71
2022/06/16 04:38:57;;;;;;;3.83;3.35;;;;;;;;;;5093929;28;20048;-71
2022/06/16 04:41:24;;;;;;;5.53;3.10;;;;;;;;;;5093771;28;20569;-70
2022/06/16 04:43:50;;;;;;;3.45;2.50;;;;;;;;;;5093990;28;20040;-71
2022/06/16 04:46:18;;;;;;;4.68;3.10;;;;;;;;;;5093977;28;20062;-71
2022/06/16 04:48:44;;;;;;;;;;;;;;;;;;5094474;28;20048;-70
2022/06/16 04:51:12;;;;;;;;;;;;;;;;;;5094408;28;19926;-71
2022/06/16 04:53:38;;;;;;;4.30;3.20;;;;;;;;;;5093843;28;19920;-71
2022/06/16 04:56:06;;;;;;;4.38;3.10;;;;;;;;;;5093437;28;20479;-70
2022/06/16 04:58:32;;;;;;;4.25;3.47;;;;;;;;;;5093439;28;20052;-71
2022/06/16 05:00:59;;;;;;;3.88;2.83;;;;;;;;;;5093820;28;20083;-71
2022/06/16 05:03:46;;;;;;;3.50;2.97;;;;;;;;;;5093165;28;20047;-71
2022/06/16 05:06:12;;;;;;;5.00;3.67;;;;;;;;;;5093346;28;20079;-71
2022/06/16 05:08:38;;;;;;;7.00;3.35;;;;;;;;;;5093153;28;20075;-71
2022/06/16 05:11:05;;;;;;;4.47;3.38;;;;;;;;;;5093110;28;20554;-71
2022/06/16 05:13:31;;;;;;;5.43;2.90;;;;;;;;;;5093415;28;20083;-71
2022/06/16 05:15:58;;;;;;;5.97;2.90;;;;;;;;;;5093415;28;20139;-71
2022/06/16 05:18:24;;;;;;;5.50;3.30;;;;;;;;;;5093338;28;20052;-71
2022/06/16 05:20:51;;;;;;;4.65;3.20;;;;;;;;;;5092988;28;20471;-70
2022/06/16 05:23:17;;;;;;;4.68;3.42;;;;;;;;;;5093217;28;20075;-70
2022/06/16 05:25:44;;;;;;;4.60;3.65;;;;;;;;;;5091961;28;20079;-70
2022/06/16 05:28:11;;;;;;;4.65;3.30;;;;;;;;;;5092902;28;20076;-70
2022/06/16 05:30:37;;;;;;;5.78;4.15;;;;;;;;;;5092759;28;20091;-70
2022/06/16 05:33:04;;;;;;;5.68;3.72;;;;;;;;;;5092814;28;20040;-70
2022/06/16 05:35:30;;;;;;;6.10;4.15;;;;;;;;;;5092886;28;20468;-70
2022/06/16 05:37:57;;;;;;;6.20;4.65;;;;;;;;;;5093048;28;20051;-70
2022/06/16 05:40:24;;;;;;;7.07;3.97;;;;;;;;;;5092935;28;20471;-70
2022/06/16 05:42:50;;;;;;;6.05;4.55;;;;;;;;;;5092549;28;20135;-70
2022/06/16 05:45:17;;;;;;;5.65;3.70;;;;;;;;;;5092520;28;20074;-70
2022/06/16 05:47:44;;;;;;;6.32;4.28;;;;;;;;;;5092776;28;20048;-70
2022/06/16 05:50:13;;;;;;;5.27;4.83;;;;;;;;;;5092468;28;20044;-70
2022/06/16 05:52:39;;;;;;;6.78;4.88;;;;;;;;;;5092053;28;20818;-69
2022/06/16 05:55:06;;;;;;;6.32;4.15;;;;;;;;;;5092580;28;20101;-69
2022/06/16 05:57:32;;;;;;;5.73;4.73;;;;;;;;;;5092150;28;20079;-70
2022/06/16 05:59:59;;;;;;;6.18;4.47;;;;;;;;;;5089890;28;20049;-69
2022/06/16 06:02:25;;;;;;;5.20;4.53;;;;;;;;;;5091453;28;20101;-69
2022/06/16 06:04:52;;;;;;;6.00;4.40;;;;;;;;;;5091145;28;20074;-68
2022/06/16 06:07:18;;;;;;;10.30;4.78;;;;;;;;;;5090821;28;20446;-67
2022/06/16 06:18:16;;;;;;;10.75;4.65;;;;;;;;;;5091981;28;20056;-70
2022/06/16 06:20:43;;;;;;;5.85;3.85;;;;;;;;;;5091037;28;20094;-70
2022/06/16 06:23:10;;;;;;;11.73;4.20;;;;;;;;;;5090852;28;20052;-70
2022/06/16 06:25:36;;;;;;;8.60;4.20;;;;;;;;;;5092187;28;20046;-71
2022/06/16 06:28:03;;;;;;;5.30;3.92;;;;;;;;;;5091908;28;20075;-71
2022/06/16 06:30:30;;;;;;;4.80;3.93;;;;;;;;;;5091799;28;20082;-71
2022/06/16 06:32:57;;;;;;;6.18;4.07;;;;;;;;;;5091873;28;20072;-70
2022/06/16 06:35:24;;;;;;;5.93;4.38;;;;;;;;;;5090908;28;20091;-70
2022/06/16 06:37:51;;;;;;;5.60;4.10;;;;;;;;;;5091730;28;20082;-70
2022/06/16 06:40:20;;;;;;;6.97;3.83;;;;;;;;;;5090735;28;20087;-70
2022/06/16 06:42:47;;;;;;;4.85;4.35;;;;;;;;;;5091085;28;20480;-70
2022/06/16 06:45:13;;;;;;;6.88;4.45;;;;;;;;;;5091308;28;20561;-72
2022/06/16 06:47:40;;;;;;;4.72;3.67;;;;;;;;;;5091125;28;20044;-71
2022/06/16 06:50:06;;;;;;;6.05;4.40;;;;;;;;;;5090908;28;20079;-72
2022/06/16 06:52:33;;;;;;;6.47;3.83;;;;;;;;;;5090445;28;20071;-72
2022/06/16 06:54:59;;;;;;;4.57;3.55;;;;;;;;;;5090883;28;20071;-72
2022/06/16 06:57:27;;;;;;;4.93;3.65;;;;;;;;;;5091551;28;20154;-72
2022/06/16 06:59:54;;;;;;;3.90;3.60;;;;;;;;;;5091826;28;20086;-72
2022/06/16 07:02:21;;;;;;;4.72;3.53;;;;;;;;;;5091594;28;20086;-72
2022/06/16 07:04:47;;;;;;;6.13;3.70;;;;;;;;;;5091443;28;20048;-72
2022/06/16 07:07:16;;;;;;;4.80;3.78;;;;;;;;;;5091376;28;20492;-72
2022/06/16 07:09:43;;;;;;;6.85;3.90;;;;;;;;;;5091153;28;20086;-72
2022/06/16 07:12:13;;;;;;;3.75;3.33;;;;;;;;;;5091567;28;20113;-72
2022/06/16 07:14:45;;;;;;;3.45;3.15;;;;;;;;;;5091704;28;20079;-72
2022/06/16 07:17:12;;;;;;;3.72;3.30;;;;;;;;;;5091359;28;20089;-72
2022/06/16 07:19:39;;;;;;;4.40;4.00;;;;;;;;;;5091667;28;20135;-72
2022/06/16 07:22:05;;;;;;;6.63;4.70;;;;;;;;;;5091229;28;20553;-73
2022/06/16 07:24:32;;;;;;;5.18;3.90;;;;;;;;;;5091511;28;20044;-72
2022/06/16 07:26:59;;;;;;;4.13;3.73;;;;;;;;;;5091343;28;20454;-72
2022/06/16 07:29:25;;;;;;;5.30;4.35;;;;;;;;;;5077430;28;20407;-72
2022/06/16 07:32:00;;;;;;;7.80;3.70;;;;;;;;;;5091545;28;20048;-73
2022/06/16 07:34:26;;;;;;;5.75;4.13;;;;;;;;;;5092198;28;20054;-72
2022/06/16 07:36:53;;;;;;;4.43;3.95;;;;;;;;;;5094990;28;20103;-72
2022/06/16 07:39:24;;;;;;;4.30;3.90;;;;;;;;;;5095045;28;20491;-72
2022/06/16 07:41:51;;;;;;;4.00;3.60;;;;;;;;;;5094980;28;20056;-72
2022/06/16 07:44:18;;;;;;;4.72;3.70;;;;;;;;;;5094897;28;20140;-72
2022/06/16 07:46:44;;;;;;;;;;;;;;;;;;5095649;28;20044;-72
2022/06/16 07:49:12;;;;;;;4.70;3.70;;;;;;;;;;5095129;28;19966;-73
2022/06/16 07:51:39;;;;;;;4.03;3.50;;;;;;;;;;5094838;28;20545;-72
2022/06/16 07:54:10;;;;;;;4.15;3.03;;;;;;;;;;5094820;28;20093;-72
2022/06/16 07:56:57;;;;;;;3.92;3.63;;;;;;;;;;5094811;28;20040;-72
2022/06/16 07:59:24;;;;;;;4.32;3.20;;;;;;;;;;5094978;28;20080;-72
2022/06/16 08:01:50;;;;;;;6.00;3.90;;;;;;;;;;5094886;28;20082;-73
2022/06/16 08:04:17;;;;;;;;;;;;;;;;;;5095276;28;20044;-73
2022/06/16 08:06:43;;;;;;;;;;;;;;;;;;5094907;28;19932;-73
2022/06/16 08:09:11;;;;;;;5.65;3.78;;;;;;;;;;5094837;28;19974;-72
2022/06/16 08:14:24;;;;;;;5.65;3.78;;;;;;;;;;5094650;28;20048;-72
2022/06/16 08:16:50;;;;;;;;;;;;;;;;;;5095347;28;20048;-73
2022/06/16 08:19:17;;;;;;;3.70;3.40;;;;;;;;;;5094748;28;19920;-72
2022/06/16 08:21:43;;;;;;;4.75;3.78;;;;;;;;;;5094340;28;20075;-72
2022/06/16 08:24:10;;;;;;;3.83;3.53;;;;;;;;;;5094382;28;20082;-72
2022/06/16 08:26:36;;;;;;;4.47;3.28;;;;;;;;;;5094136;28;20553;-72
2022/06/16 08:29:05;;;;;;;3.50;3.20;;;;;;;;;;5094063;28;20522;-72
2022/06/16 08:31:32;;;;;;;3.40;3.10;;;;;;;;;;5094032;28;20531;-72
2022/06/16 08:33:59;;;;;;;4.47;3.60;;;;;;;;;;5094226;28;20126;-72
2022/06/16 08:36:25;;;;;;;5.22;4.63;;;;;;;;;;5093867;28;20087;-72
2022/06/16 08:38:52;;;;;;;3.70;3.40;;;;;;;;;;5093983;28;20466;-73
2022/06/16 08:41:26;;;;;;;4.10;3.67;;;;;;;;;;5093772;28;20475;-71
2022/06/16 08:44:00;;;;;;;3.53;3.22;;;;;;;;;;5094201;28;20574;-72
2022/06/16 08:46:30;;;;;;;3.70;3.33;;;;;;;;;;5093499;28;20052;-72
2022/06/16 08:49:25;;;;;;;3.95;3.55;;;;;;;;;;5094369;28;20052;-72
2022/06/16 08:51:58;;;;;;;4.13;3.72;;;;;;;;;;5094054;28;20132;-72
2022/06/16 08:54:27;;;;;;;4.68;3.83;;;;;;;;;;5093671;28;20076;-72
2022/06/16 08:56:57;;;;;;;4.43;3.72;;;;;;;;;;5093397;28;20044;-72
2022/06/16 08:59:29;;;;;;;3.63;3.30;;;;;;;;;;5093831;28;20446;-72
2022/06/16 09:02:01;;;;;;;4.20;3.30;;;;;;;;;;5093685;28;20074;-72
2022/06/16 09:04:31;;;;;;;6.82;3.50;;;;;;;;;;5093649;28;20128;-72
2022/06/16 09:06:59;;;;;;;4.75;3.10;;;;;;;;;;5093311;28;20093;-73
2022/06/16 09:12:38;;;;;;;5.47;4.03;;;;;;;;;;5093541;28;20069;-72
2022/06/16 09:15:21;;;;;;;4.13;3.45;;;;;;;;;;5093243;28;20079;-72
2022/06/16 09:17:50;;;;;;;9.15;4.07;;;;;;;;;;5093400;28;20047;-73
2022/06/16 09:20:45;;;;;;;34.15;8.35;;;;;;;;;;5093048;28;20044;-72
2022/06/16 09:23:12;;;;;;;6.10;4.30;;;;;;;;;;5093391;28;20101;-73
2022/06/16 09:25:41;;;;;;;3.75;3.38;;;;;;;;;;5092860;28;20496;-73
2022/06/16 09:28:13;;;;;;;3.63;3.33;;;;;;;;;;5093263;28;20369;-73
2022/06/16 09:30:40;;;;;;;5.38;4.22;;;;;;;;;;5092741;28;20075;-72
2022/06/16 09:33:11;;;;;;;4.25;3.60;;;;;;;;;;5092868;28;20059;-72
2022/06/16 09:35:41;;;;;;;4.28;3.30;;;;;;;;;;5092567;28;20572;-72
2022/06/16 09:38:12;;;;;;;3.10;2.55;;;;;;;;;;5093022;28;20048;-73
2022/06/16 09:40:45;;;;;;;4.30;3.25;;;;;;;;;;5092976;28;20056;-72
2022/06/16 09:43:11;;;;;;;12.13;4.82;;;;;;;;;;5092985;28;20093;-72
2022/06/16 09:45:48;;;;;;;3.85;2.90;;;;;;;;;;5092541;28;20040;-72
2022/06/16 09:48:18;;;;;;;3.90;3.60;;;;;;;;;;5079542;28;20484;-72
2022/06/16 09:50:53;;;;;;;3.70;3.10;;;;;;;;;;5092823;28;20040;-72
2022/06/16 09:53:27;;;;;;;5.03;3.40;;;;;;;;;;5092459;28;20083;-72
2022/06/16 09:55:59;;;;;;;4.13;3.30;;;;;;;;;;5092703;28;20048;-72
2022/06/16 09:58:26;;;;;;;3.35;2.97;;;;;;;;;;5091957;28;20056;-72
2022/06/16 10:00:53;;;;;;;4.70;3.03;;;;;;;;;;5092545;28;20079;-72
2022/06/16 10:03:32;;;;;;;3.45;3.15;;;;;;;;;;5092621;28;20048;-72
2022/06/16 10:06:11;;;;;;;3.03;2.60;;;;;;;;;;5092314;28;20127;-72
2022/06/16 10:08:41;;;;;;;4.82;2.75;;;;;;;;;;5092506;28;20056;-72
2022/06/16 10:11:15;;;;;;;3.40;2.25;;;;;;;;;;5091333;28;20082;-72
2022/06/16 10:13:46;;;;;;;2.83;2.17;;;;;;;;;;5092152;28;20456;-73
2022/06/16 10:16:15;;;;;;;3.83;2.08;;;;;;;;;;5091067;28;20083;-72
2022/06/16 10:18:42;;;;;;;3.92;2.08;;;;;;;;;;5091978;28;20617;-73
2022/06/16 10:21:10;;;;;;;3.78;2.53;;;;;;;;;;5092285;28;20113;-72
2022/06/16 10:23:38;;;;;;;4.25;2.40;;;;;;;;;;5092147;28;20506;-72
2022/06/16 10:26:06;;;;;;;6.43;2.42;;;;;;;;;;5092127;28;20048;-73
2022/06/16 10:28:52;;;;;;;4.60;2.22;;;;;;;;;;5091847;28;20067;-73
2022/06/16 10:31:37;;;;;;;4.60;2.30;;;;;;;;;;5092057;28;20139;-73
2022/06/16 10:34:04;;;;;;;5.32;3.25;;;;;;;;;;5091721;28;20385;-72
2022/06/16 10:36:32;;;;;;;5.10;2.70;;;;;;;;;;5091663;28;20087;-73
2022/06/16 10:39:15;;;;;;;4.75;3.03;;;;;;;;;;5091660;28;20048;-72
2022/06/16 10:41:51;;;;;;;3.65;3.10;;;;;;;;;;5091787;28;20048;-72
2022/06/16 10:44:18;;;;;;;5.18;3.35;;;;;;;;;;5092040;28;20075;-73
2022/06/16 10:46:49;;;;;;;2.80;2.55;;;;;;;;;;5091629;28;20519;-72
2022/06/16 10:49:18;;;;;;;6.15;3.20;;;;;;;;;;5091820;28;20419;-73
2022/06/16 10:51:57;;;;;;;5.63;2.78;;;;;;;;;;5091875;28;20079;-72
2022/06/16 10:54:29;;;;;;;3.35;2.83;;;;;;;;;;5091485;28;20561;-72
2022/06/16 10:57:14;;;;;;;2.70;2.50;;;;;;;;;;5090470;28;20452;-72
2022/06/16 10:59:45;;;;;;;4.35;2.72;;;;;;;;;;5091802;28;20105;-72
2022/06/16 11:02:17;;;;;;;5.22;3.25;;;;;;;;;;5090537;28;20139;-72
2022/06/16 11:04:49;;;;;;;6.25;3.05;;;;;;;;;;5091885;28;20063;-72
2022/06/16 11:07:20;;;;;;;5.30;3.40;;;;;;;;;;5091727;28;20048;-73
2022/06/16 11:09:47;;;;;;;3.80;3.35;;;;;;;;;;5095008;28;20081;-73
2022/06/16 11:12:16;;;;;;;3.05;2.72;;;;;;;;;;5095537;28;20496;-73
2022/06/16 11:14:53;;;;;;;4.28;2.88;;;;;;;;;;5095550;28;20079;-73
2022/06/16 11:17:20;;;;;;;6.50;2.60;;;;;;;;;;5095699;28;20068;-73
2022/06/16 11:19:49;;;;;;;4.88;2.33;;;;;;;;;;5095751;28;20078;-73
2022/06/16 11:22:17;;;;;;;4.78;2.50;;;;;;;;;;5095619;28;20088;-72
2022/06/16 11:24:54;;;;;;;4.88;2.40;;;;;;;;;;5095614;28;20105;-73
2022/06/16 11:27:21;;;;;;;5.28;2.88;;;;;;;;;;5095342;28;20486;-73
2022/06/16 11:29:47;;;;;;;3.88;2.83;;;;;;;;;;5095207;28;20076;-72
2022/06/16 11:32:17;;;;;;;3.40;2.30;;;;;;;;;;5095073;28;20488;-73
2022/06/16 11:34:44;;;;;;;7.13;2.58;;;;;;;;;;5095323;28;20060;-73
2022/06/16 11:37:26;;;;;;;5.10;2.30;;;;;;;;;;5095044;28;20564;-73
2022/06/16 11:40:19;;;;;;;5.90;2.45;;;;;;;;;;5095248;28;20086;-73
2022/06/16 11:42:55;;;;;;;3.97;2.35;;;;;;;;;;5068198;28;20048;-73
2022/06/16 11:45:24;;;;;;;3.38;2.50;;;;;;;;;;5095100;28;20083;-73
2022/06/16 11:47:57;;;;;;;4.90;2.20;;;;;;;;;;5095183;28;20388;-73
2022/06/16 11:50:31;;;;;;;8.15;2.60;;;;;;;;;;5094908;28;20515;-73
2022/06/16 11:53:08;;;;;;;4.80;2.17;;;;;;;;;;5095090;28;20067;-73
2022/06/16 11:55:38;;;;;;;3.65;1.90;;;;;;;;;;5094656;28;20476;-73
2022/06/16 11:58:04;;;;;;;5.05;2.20;;;;;;;;;;5094724;28;20109;-73
2022/06/16 12:00:30;;;;;;;;;;;;;;;;;;5095169;28;20086;-73
2022/06/16 12:03:36;;;;;;;4.85;2.25;;;;;;;;;;5094696;28;19920;-73
2022/06/16 12:06:08;;;;;;;7.20;2.20;;;;;;;;;;5094492;28;20509;-73
2022/06/16 12:08:45;;;;;;;5.53;1.95;;;;;;;;;;5094517;28;20071;-73
2022/06/16 12:11:27;;;;;;;5.30;2.05;;;;;;;;;;5094562;28;20484;-73
2022/06/16 12:14:33;;;;;;;3.90;1.90;;;;;;;;;;5094617;28;20040;-73
2022/06/16 12:17:19;;;;;;;5.63;1.90;;;;;;;;;;5094523;28;20450;-73
2022/06/16 12:19:49;;;;;;;3.17;2.00;;;;;;;;;;5093986;28;20485;-74
2022/06/16 12:22:19;;;;;;;4.60;1.45;;;;;;;;;;5094426;28;20086;-74
2022/06/16 12:24:49;;;;;;;3.88;1.80;;;;;;;;;;5094244;28;20472;-74
2022/06/16 12:27:48;;;;;;;4.45;1.52;;;;;;;;;;5094088;28;20470;-74
2022/06/16 12:30:16;;;;;;;2.88;1.77;;;;;;;;;;5049585;28;20071;-72
2022/06/16 12:32:50;;;;;;;3.58;1.45;;;;;;;;;;5093923;28;20075;-74
2022/06/16 12:35:19;;;;;;;1.40;1.27;;;;;;;;;;5094170;28;20048;-74
2022/06/16 12:37:49;;;;;;;3.25;1.67;;;;;;;;;;5094223;28;20097;-74
2022/06/16 12:40:35;;;;;;;3.03;1.42;;;;;;;;;;5094148;28;20051;-74
2022/06/16 12:43:12;;;;;;;3.33;1.77;;;;;;;;;;5092613;28;20484;-71
2022/06/16 12:45:41;;;;;;;2.55;1.52;;;;;;;;;;5094098;28;20048;-72
2022/06/16 12:48:14;;;;;;;2.83;1.00;;;;;;;;;;5094083;28;20068;-72
2022/06/16 12:51:01;;;;;;;2.72;1.10;;;;;;;;;;5093614;28;20518;-72
2022/06/16 12:53:30;;;;;;;2.03;0.90;;;;;;;;;;5093536;28;20062;-72
2022/06/16 12:56:03;;;;;;;5.72;1.15;;;;;;;;;;5093711;28;20079;-72
2022/06/16 12:58:36;;;;;;;1.52;0.73;;;;;;;;;;5093765;28;20056;-72
2022/06/16 13:01:04;;;;;;;1.23;0.77;;;;;;;;;;5093846;28;20131;-72
2022/06/16 13:03:37;;;;;;;0.68;0.68;;;;;;;;;;5093312;28;20052;-72
2022/06/16 13:06:04;;;;;;;0.77;0.70;;;;;;;;;;5093524;28;20080;-72
2022/06/16 13:08:32;;;;;;;1.63;0.90;;;;;;;;;;5093290;28;20495;-72
2022/06/16 13:11:01;;;;;;;2.65;0.95;;;;;;;;;;5093347;28;20577;-72
2022/06/16 13:13:35;;;;;;;1.05;0.63;;;;;;;;;;5092046;28;20056;-72
2022/06/16 13:16:02;;;;;;;2.25;0.85;;;;;;;;;;5093525;28;20052;-72
2022/06/16 13:18:31;;;;;;;1.33;0.90;;;;;;;;;;5093285;28;20052;-72
2022/06/16 13:21:00;;;;;;;1.65;0.70;;;;;;;;;;5093357;28;20064;-72
2022/06/16 13:23:30;;;;;;;0.93;0.70;;;;;;;;;;5093375;28;20097;-72
2022/06/16 13:26:19;;;;;;;2.28;0.65;;;;;;;;;;5093237;28;20071;-72
2022/06/16 13:29:15;;;;;;;1.63;0.85;;;;;;;;;;5082467;28;20499;-72
2022/06/16 13:31:41;;;;;;;0.70;0.57;;;;;;;;;;5085646;28;20044;-73
2022/06/16 13:34:08;;;;;;;0.80;0.63;;;;;;;;;;5093190;28;20048;-73
2022/06/16 13:36:34;;;;;;;2.58;0.70;;;;;;;;;;5092618;28;20098;-72
2022/06/16 13:39:03;;;;;;;0.43;0.32;;;;;;;;;;5078481;28;20076;-72
2022/06/16 13:41:32;;;;;;;0.95;0.50;;;;;;;;;;5092758;28;20419;-72
2022/06/16 13:44:14;;;;;;;1.13;0.73;;;;;;;;;;5092853;28;20056;-72
2022/06/16 13:46:46;;;;;;;1.02;0.40;;;;;;;;;;5092750;28;20052;-72
2022/06/16 13:49:24;;;;;;;1.50;0.30;;;;;;;;;;5093017;28;20483;-72
2022/06/16 13:51:51;;;;;;;1.05;0.30;;;;;;;;;;5092824;28;20121;-72
2022/06/16 13:54:27;;;;;;;1.48;0.52;;;;;;;;;;5092431;28;20408;-72
2022/06/16 13:57:15;;;;;;;1.02;0.40;;;;;;;;;;5092634;28;20442;-72
2022/06/16 13:59:42;;;;;;;1.15;0.60;;;;;;;;;;5092480;28;20498;-73
2022/06/16 14:02:11;;;;;;;3.53;0.52;;;;;;;;;;5092579;28;20087;-73
2022/06/16 14:05:03;;;;;;;1.67;0.60;;;;;;;;;;5092587;28;20048;-73
2022/06/16 14:07:32;;;;;;;1.02;0.50;;;;;;;;;;5092361;28;20044;-73
2022/06/16 14:10:07;;;;;;;2.75;0.65;;;;;;;;;;5092190;28;20561;-73
2022/06/16 14:12:45;;;;;;;1.55;0.50;;;;;;;;;;5092126;28;20083;-73
2022/06/16 14:15:38;;;;;;;0.88;0.60;;;;;;;;;;5092451;28;20040;-73
2022/06/16 14:18:13;;;;;;;0.68;0.50;;;;;;;;;;5092499;28;20052;-73
2022/06/16 14:20:41;;;;;;;2.25;0.60;;;;;;;;;;5090720;28;20093;-73
2022/06/16 14:23:13;;;;;;;1.85;0.70;;;;;;;;;;5091037;28;20051;-73
2022/06/16 14:25:44;;;;;;;2.30;0.52;;;;;;;;;;5077934;28;20048;-73
2022/06/16 14:28:32;;;;;;;1.30;0.70;;;;;;;;;;5082298;28;20068;-73
2022/06/16 14:31:01;;;;;;;1.10;0.60;;;;;;;;;;5090741;28;20098;-73
2022/06/16 14:33:34;;;;;;;2.05;0.40;;;;;;;;;;5092172;28;20098;-73
2022/06/16 14:36:13;;;;;;;2.65;0.55;;;;;;;;;;5087541;28;20056;-73
2022/06/16 14:38:53;;;;;;;1.17;0.77;;;;;;;;;;5084452;28;20047;-73
2022/06/16 14:41:23;;;;;;;0.75;0.57;;;;;;;;;;5091872;28;20083;-73
2022/06/16 14:44:11;;;;;;;1.38;0.80;;;;;;;;;;5091615;28;20080;-72
2022/06/16 14:46:53;;;;;;;1.42;1.05;;;;;;;;;;5091644;28;20538;-72
2022/06/16 14:49:32;;;;;;;1.00;0.85;;;;;;;;;;5091985;28;20052;-71
2022/06/16 14:52:00;;;;;;;2.78;0.90;;;;;;;;;;5081878;28;20055;-72
2022/06/16 14:54:28;;;;;;;1.92;0.80;;;;;;;;;;5087741;28;20086;-71
2022/06/16 14:56:56;;;;;;;0.90;0.90;;;;;;;;;;5091738;28;20094;-74
2022/06/16 14:59:25;;;;;;;1.65;0.70;;;;;;;;;;5091916;28;20195;-71
2022/06/16 15:01:55;;;;;;;1.30;0.70;;;;;;;;;;5091445;28;20074;-71
2022/06/16 15:04:25;;;;;;;3.05;0.70;;;;;;;;;;5091889;28;20109;-71
2022/06/16 15:06:57;;;;;;;1.65;0.50;;;;;;;;;;5091625;28;20052;-71
2022/06/16 15:09:29;;;;;;;0.50;0.50;;;;;;;;;;5091473;28;20569;-72
2022/06/16 15:11:58;;;;;;;0.47;0.40;;;;;;;;;;5090144;28;20389;-72
2022/06/16 15:14:25;;;;;;;0.55;0.40;;;;;;;;;;5091733;28;20078;-72
2022/06/16 15:19:47;;;;;;;0.57;0.50;;;;;;;;;;5091668;28;20056;-72
2022/06/16 15:22:15;;;;;;;2.17;0.50;;;;;;;;;;5091391;28;20048;-72
2022/06/16 15:24:51;;;;;;;0.77;0.75;;;;;;;;;;5091685;28;20095;-72
2022/06/16 15:27:25;;;;;;;1.48;1.00;;;;;;;;;;5091229;28;20496;-72